sensor_id;sensor_type;location;lat;lon;timestamp;pressure;altitude;pressure_sealevel;temperature;humidity
30967;BME280;17649;51.836;8.330;2024-02-26T00:00:57;99510.34;;;4.27;100.00
30967;BME280;17649;51.836;8.330;2024-02-26T00:03:57;99503.66;;;4.24;100.00
30967;BME280;17649;51.836;8.330;2024-02-26T00:06:59;99512.69;;;4.31;100.00
30967;BME280;17649;51.836;8.330;2024-02-26T00:09:59;99506.41;;;4.38;100.00
30967;BME280;17649;51.836;8.330;2024-02-26T00:13:00;99503.84;;;4.38;100.00
30967;BME280;17649;51.836;8.330;2024-02-26T00:16:00;99507.22;;;4.39;100.00
30967;BME280;17649;51.836;8.330;2024-02-26T00:19:00;99511.28;;;4.43;100.00
30967;BME280;17649;51.836;8.330;2024-02-26T00:22:00;99516.06;;;4.51;100.00
30967;BME280;17649;51.836;8.330;2024-02-26T00:25:00;99509.75;;;4.58;100.00
30967;BME280;17649;51.836;8.330;2024-02-26T00:28:01;99506.81;;;4.65;100.00
30967;BME280;17649;51.836;8.330;2024-02-26T00:31:01;99505.59;;;4.72;100.00
30967;BME280;17649;51.836;8.330;2024-02-26T00:34:02;99501.38;;;4.71;100.00
30967;BME280;17649;51.836;8.330;2024-02-26T00:37:02;99501.09;;;4.77;100.00
30967;BME280;17649;51.836;8.330;2024-02-26T00:40:02;99511.88;;;4.84;100.00
30967;BME280;17649;51.836;8.330;2024-02-26T00:43:03;99502.38;;;4.86;100.00
30967;BME280;17649;51.836;8.330;2024-02-26T00:46:03;99498.00;;;4.88;100.00
30967;BME280;17649;51.836;8.330;2024-02-26T00:49:03;99492.75;;;4.91;100.00
30967;BME280;17649;51.836;8.330;2024-02-26T00:52:04;99490.69;;;4.98;100.00
30967;BME280;17649;51.836;8.330;2024-02-26T00:55:04;99497.22;;;5.03;100.00
30967;BME280;17649;51.836;8.330;2024-02-26T00:58:05;99492.09;;;5.03;100.00
30967;BME280;17649;51.836;8.330;2024-02-26T01:01:05;99494.31;;;5.11;100.00
30967;BME280;17649;51.836;8.330;2024-02-26T01:04:05;99477.56;;;5.21;100.00
30967;BME280;17649;51.836;8.330;2024-02-26T01:07:05;99465.47;;;5.23;100.00
30967;BME280;17649;51.836;8.330;2024-02-26T01:10:06;99468.69;;;5.27;100.00
30967;BME280;17649;51.836;8.330;2024-02-26T01:13:06;99466.13;;;5.27;100.00
30967;BME280;17649;51.836;8.330;2024-02-26T01:16:07;99469.78;;;5.23;100.00
30967;BME280;17649;51.836;8.330;2024-02-26T01:19:10;99462.19;;;5.37;100.00
30967;BME280;17649;51.836;8.330;2024-02-26T01:22:10;99460.78;;;5.47;100.00
30967;BME280;17649;51.836;8.330;2024-02-26T01:25:12;99460.78;;;5.47;100.00
30967;BME280;17649;51.836;8.330;2024-02-26T01:28:13;99460.63;;;5.50;100.00
30967;BME280;17649;51.836;8.330;2024-02-26T01:31:13;99447.56;;;5.55;100.00
30967;BME280;17649;51.836;8.330;2024-02-26T01:34:13;99454.44;;;5.54;100.00
30967;BME280;17649;51.836;8.330;2024-02-26T01:37:14;99449.22;;;5.56;100.00
30967;BME280;17649;51.836;8.330;2024-02-26T01:40:14;99442.19;;;5.59;100.00
30967;BME280;17649;51.836;8.330;2024-02-26T01:43:19;99446.09;;;5.66;100.00
30967;BME280;17649;51.836;8.330;2024-02-26T01:46:20;99440.97;;;5.66;100.00
30967;BME280;17649;51.836;8.330;2024-02-26T01:49:20;99435.66;;;5.69;100.00
30967;BME280;17649;51.836;8.330;2024-02-26T01:52:21;99437.22;;;5.72;100.00
30967;BME280;17649;51.836;8.330;2024-02-26T01:55:22;99435.00;;;5.82;100.00
30967;BME280;17649;51.836;8.330;2024-02-26T01:58:23;99438.88;;;5.89;100.00
30967;BME280;17649;51.836;8.330;2024-02-26T02:04:27;99439.47;;;5.94;100.00
30967;BME280;17649;51.836;8.330;2024-02-26T02:07:27;99444.31;;;6.00;100.00
30967;BME280;17649;51.836;8.330;2024-02-26T02:10:28;99445.59;;;6.07;100.00
30967;BME280;17649;51.836;8.330;2024-02-26T02:13:29;99441.81;;;6.14;100.00
30967;BME280;17649;51.836;8.330;2024-02-26T02:16:29;99442.09;;;6.24;100.00
30967;BME280;17649;51.836;8.330;2024-02-26T02:19:29;99446.81;;;6.32;100.00
30967;BME280;17649;51.836;8.330;2024-02-26T02:22:29;99456.38;;;6.30;100.00
30967;BME280;17649;51.836;8.330;2024-02-26T02:25:32;99463.25;;;6.29;100.00
30967;BME280;17649;51.836;8.330;2024-02-26T02:28:32;99459.84;;;6.28;100.00
30967;BME280;17649;51.836;8.330;2024-02-26T02:31:32;99456.63;;;6.25;100.00
30967;BME280;17649;51.836;8.330;2024-02-26T02:34:33;99457.84;;;6.34;100.00
30967;BME280;17649;51.836;8.330;2024-02-26T02:37:34;99459.03;;;6.28;100.00
30967;BME280;17649;51.836;8.330;2024-02-26T02:40:34;99458.28;;;6.26;100.00
30967;BME280;17649;51.836;8.330;2024-02-26T02:43:34;99464.91;;;6.30;100.00
30967;BME280;17649;51.836;8.330;2024-02-26T02:46:34;99458.50;;;6.21;100.00
30967;BME280;17649;51.836;8.330;2024-02-26T02:49:35;99459.31;;;6.38;100.00
30967;BME280;17649;51.836;8.330;2024-02-26T02:52:35;99454.72;;;6.28;100.00
30967;BME280;17649;51.836;8.330;2024-02-26T02:55:35;99454.94;;;6.24;100.00
30967;BME280;17649;51.836;8.330;2024-02-26T02:58:36;99460.97;;;6.39;100.00
30967;BME280;17649;51.836;8.330;2024-02-26T03:01:36;99462.56;;;6.41;100.00
30967;BME280;17649;51.836;8.330;2024-02-26T03:04:36;99465.19;;;6.40;100.00
30967;BME280;17649;51.836;8.330;2024-02-26T03:07:36;99461.13;;;6.51;100.00
30967;BME280;17649;51.836;8.330;2024-02-26T03:10:37;99468.31;;;6.61;100.00
30967;BME280;17649;51.836;8.330;2024-02-26T03:13:37;99469.69;;;6.66;100.00
30967;BME280;17649;51.836;8.330;2024-02-26T03:16:38;99470.28;;;6.71;100.00
30967;BME280;17649;51.836;8.330;2024-02-26T03:19:38;99472.66;;;6.74;100.00
30967;BME280;17649;51.836;8.330;2024-02-26T03:22:39;99481.84;;;6.78;100.00
30967;BME280;17649;51.836;8.330;2024-02-26T03:25:41;99485.25;;;6.79;100.00
30967;BME280;17649;51.836;8.330;2024-02-26T03:28:41;99477.44;;;6.80;100.00
30967;BME280;17649;51.836;8.330;2024-02-26T03:31:41;99486.72;;;6.83;100.00
30967;BME280;17649;51.836;8.330;2024-02-26T03:34:42;99485.91;;;6.82;100.00
30967;BME280;17649;51.836;8.330;2024-02-26T03:37:42;99484.81;;;6.86;100.00
30967;BME280;17649;51.836;8.330;2024-02-26T03:40:42;99488.69;;;6.94;100.00
30967;BME280;17649;51.836;8.330;2024-02-26T03:43:42;99487.75;;;6.95;100.00
30967;BME280;17649;51.836;8.330;2024-02-26T03:46:43;99492.19;;;6.93;100.00
30967;BME280;17649;51.836;8.330;2024-02-26T03:49:43;99496.31;;;6.95;100.00
30967;BME280;17649;51.836;8.330;2024-02-26T03:52:43;99495.72;;;6.76;100.00
30967;BME280;17649;51.836;8.330;2024-02-26T03:55:43;99501.63;;;6.92;100.00
30967;BME280;17649;51.836;8.330;2024-02-26T03:58:43;99502.28;;;6.96;100.00
30967;BME280;17649;51.836;8.330;2024-02-26T04:01:45;99500.53;;;6.96;100.00
30967;BME280;17649;51.836;8.330;2024-02-26T04:04:46;99500.09;;;7.04;100.00
30967;BME280;17649;51.836;8.330;2024-02-26T04:07:46;99509.75;;;7.00;100.00
30967;BME280;17649;51.836;8.330;2024-02-26T04:10:47;99508.00;;;7.01;100.00
30967;BME280;17649;51.836;8.330;2024-02-26T04:13:47;99512.03;;;7.05;100.00
30967;BME280;17649;51.836;8.330;2024-02-26T04:16:51;99504.16;;;7.08;100.00
30967;BME280;17649;51.836;8.330;2024-02-26T04:19:52;99504.69;;;7.13;100.00
30967;BME280;17649;51.836;8.330;2024-02-26T04:22:52;99502.88;;;7.15;100.00
30967;BME280;17649;51.836;8.330;2024-02-26T04:25:53;99508.03;;;7.15;100.00
30967;BME280;17649;51.836;8.330;2024-02-26T04:28:56;99521.63;;;7.17;100.00
30967;BME280;17649;51.836;8.330;2024-02-26T04:31:56;99524.28;;;7.15;100.00
30967;BME280;17649;51.836;8.330;2024-02-26T04:34:56;99517.94;;;7.21;100.00
30967;BME280;17649;51.836;8.330;2024-02-26T04:37:57;99517.94;;;7.21;100.00
30967;BME280;17649;51.836;8.330;2024-02-26T04:40:57;99523.75;;;7.25;100.00
30967;BME280;17649;51.836;8.330;2024-02-26T04:43:58;99535.22;;;7.19;100.00
30967;BME280;17649;51.836;8.330;2024-02-26T04:46:58;99534.81;;;7.11;100.00
30967;BME280;17649;51.836;8.330;2024-02-26T04:49:58;99532.75;;;7.17;100.00
30967;BME280;17649;51.836;8.330;2024-02-26T04:52:58;99538.13;;;7.13;100.00
30967;BME280;17649;51.836;8.330;2024-02-26T04:55:58;99540.72;;;7.13;100.00
30967;BME280;17649;51.836;8.330;2024-02-26T04:58:59;99541.53;;;7.13;100.00
30967;BME280;17649;51.836;8.330;2024-02-26T05:01:59;99537.31;;;7.12;100.00
30967;BME280;17649;51.836;8.330;2024-02-26T05:04:59;99537.22;;;7.14;100.00
30967;BME280;17649;51.836;8.330;2024-02-26T05:07:59;99539.06;;;7.12;100.00
30967;BME280;17649;51.836;8.330;2024-02-26T05:10:59;99534.66;;;7.14;100.00
30967;BME280;17649;51.836;8.330;2024-02-26T05:14:00;99532.63;;;7.05;100.00
30967;BME280;17649;51.836;8.330;2024-02-26T05:17:01;99537.88;;;7.17;100.00
30967;BME280;17649;51.836;8.330;2024-02-26T05:20:01;99531.91;;;7.17;100.00
30967;BME280;17649;51.836;8.330;2024-02-26T05:23:02;99526.78;;;7.17;100.00
30967;BME280;17649;51.836;8.330;2024-02-26T05:26:03;99527.78;;;7.14;100.00
30967;BME280;17649;51.836;8.330;2024-02-26T05:29:03;99529.06;;;7.22;100.00
30967;BME280;17649;51.836;8.330;2024-02-26T05:32:05;99507.13;;;7.16;100.00
30967;BME280;17649;51.836;8.330;2024-02-26T05:35:05;99518.66;;;7.09;100.00
30967;BME280;17649;51.836;8.330;2024-02-26T05:38:05;99523.19;;;7.20;100.00
30967;BME280;17649;51.836;8.330;2024-02-26T05:41:06;99513.59;;;7.07;100.00
30967;BME280;17649;51.836;8.330;2024-02-26T05:44:08;99519.16;;;7.30;100.00
30967;BME280;17649;51.836;8.330;2024-02-26T05:47:10;99510.03;;;7.24;100.00
30967;BME280;17649;51.836;8.330;2024-02-26T05:50:10;99515.47;;;7.20;100.00
30967;BME280;17649;51.836;8.330;2024-02-26T05:53:10;99517.94;;;7.21;100.00
30967;BME280;17649;51.836;8.330;2024-02-26T05:56:11;99517.94;;;7.21;100.00
30967;BME280;17649;51.836;8.330;2024-02-26T05:59:11;99516.38;;;7.04;100.00
30967;BME280;17649;51.836;8.330;2024-02-26T06:02:11;99513.97;;;7.01;100.00
30967;BME280;17649;51.836;8.330;2024-02-26T06:05:11;99514.06;;;7.14;100.00
30967;BME280;17649;51.836;8.330;2024-02-26T06:08:12;99524.91;;;7.05;100.00
30967;BME280;17649;51.836;8.330;2024-02-26T06:11:12;99518.78;;;7.22;100.00
30967;BME280;17649;51.836;8.330;2024-02-26T06:14:12;99517.31;;;7.17;100.00
30967;BME280;17649;51.836;8.330;2024-02-26T06:17:14;99532.91;;;7.29;100.00
30967;BME280;17649;51.836;8.330;2024-02-26T06:20:14;99538.16;;;7.27;100.00
30967;BME280;17649;51.836;8.330;2024-02-26T06:23:15;99546.38;;;7.34;100.00
30967;BME280;17649;51.836;8.330;2024-02-26T06:26:15;99554.63;;;7.25;100.00
30967;BME280;17649;51.836;8.330;2024-02-26T06:29:16;99545.16;;;7.25;100.00
30967;BME280;17649;51.836;8.330;2024-02-26T06:32:16;99559.69;;;7.40;100.00
30967;BME280;17649;51.836;8.330;2024-02-26T06:35:16;99555.09;;;7.31;100.00
30967;BME280;17649;51.836;8.330;2024-02-26T06:38:16;99570.16;;;7.37;100.00
30967;BME280;17649;51.836;8.330;2024-02-26T06:41:17;99576.84;;;7.26;100.00
30967;BME280;17649;51.836;8.330;2024-02-26T06:44:17;99575.69;;;7.31;100.00
30967;BME280;17649;51.836;8.330;2024-02-26T06:47:18;99575.88;;;7.42;100.00
30967;BME280;17649;51.836;8.330;2024-02-26T06:50:19;99575.03;;;7.42;100.00
30967;BME280;17649;51.836;8.330;2024-02-26T06:53:19;99581.16;;;7.25;100.00
30967;BME280;17649;51.836;8.330;2024-02-26T06:56:20;99581.56;;;7.33;100.00
30967;BME280;17649;51.836;8.330;2024-02-26T06:59:20;99582.75;;;7.42;100.00
30967;BME280;17649;51.836;8.330;2024-02-26T07:02:20;99576.34;;;7.35;100.00
30967;BME280;17649;51.836;8.330;2024-02-26T07:05:20;99581.94;;;7.41;100.00
30967;BME280;17649;51.836;8.330;2024-02-26T07:08:21;99575.44;;;7.50;100.00
30967;BME280;17649;51.836;8.330;2024-02-26T07:11:21;99588.84;;;7.55;100.00
30967;BME280;17649;51.836;8.330;2024-02-26T07:14:21;99594.47;;;7.62;100.00
30967;BME280;17649;51.836;8.330;2024-02-26T07:17:22;99596.41;;;7.72;100.00
30967;BME280;17649;51.836;8.330;2024-02-26T07:20:22;99607.53;;;7.73;100.00
30967;BME280;17649;51.836;8.330;2024-02-26T07:23:22;99606.34;;;7.78;100.00
30967;BME280;17649;51.836;8.330;2024-02-26T07:26:22;99602.03;;;7.79;100.00
30967;BME280;17649;51.836;8.330;2024-02-26T07:29:24;99613.25;;;7.78;100.00
30967;BME280;17649;51.836;8.330;2024-02-26T07:32:24;99609.94;;;7.76;100.00
30967;BME280;17649;51.836;8.330;2024-02-26T07:35:24;99607.53;;;7.87;100.00
30967;BME280;17649;51.836;8.330;2024-02-26T07:38:25;99613.25;;;7.92;100.00
30967;BME280;17649;51.836;8.330;2024-02-26T07:41:25;99621.72;;;7.94;100.00
30967;BME280;17649;51.836;8.330;2024-02-26T07:44:25;99628.63;;;7.80;100.00
30967;BME280;17649;51.836;8.330;2024-02-26T07:47:26;99630.19;;;7.96;100.00
30967;BME280;17649;51.836;8.330;2024-02-26T07:50:26;99635.34;;;7.96;100.00
30967;BME280;17649;51.836;8.330;2024-02-26T07:53:26;99627.41;;;8.14;100.00
30967;BME280;17649;51.836;8.330;2024-02-26T07:56:26;99641.03;;;8.30;100.00
30967;BME280;17649;51.836;8.330;2024-02-26T07:59:27;99641.75;;;8.46;100.00
30967;BME280;17649;51.836;8.330;2024-02-26T08:02:27;99638.25;;;8.61;100.00
30967;BME280;17649;51.836;8.330;2024-02-26T08:05:27;99640.69;;;8.77;100.00
30967;BME280;17649;51.836;8.330;2024-02-26T08:08:28;99644.97;;;8.91;100.00
30967;BME280;17649;51.836;8.330;2024-02-26T08:11:28;99644.19;;;9.03;100.00
30967;BME280;17649;51.836;8.330;2024-02-26T08:14:28;99652.09;;;9.14;100.00
30967;BME280;17649;51.836;8.330;2024-02-26T08:17:28;99657.41;;;9.25;100.00
30967;BME280;17649;51.836;8.330;2024-02-26T08:20:29;99660.72;;;9.40;100.00
30967;BME280;17649;51.836;8.330;2024-02-26T08:23:29;99663.84;;;9.45;100.00
30967;BME280;17649;51.836;8.330;2024-02-26T08:26:31;99667.97;;;9.48;100.00
30967;BME280;17649;51.836;8.330;2024-02-26T08:29:31;99664.16;;;9.53;100.00
30967;BME280;17649;51.836;8.330;2024-02-26T08:32:32;99673.25;;;9.59;100.00
30967;BME280;17649;51.836;8.330;2024-02-26T08:35:32;99676.25;;;9.53;100.00
30967;BME280;17649;51.836;8.330;2024-02-26T08:38:33;99673.38;;;9.70;100.00
30967;BME280;17649;51.836;8.330;2024-02-26T08:41:35;99676.00;;;9.83;100.00
30967;BME280;17649;51.836;8.330;2024-02-26T08:44:35;99678.16;;;9.89;100.00
30967;BME280;17649;51.836;8.330;2024-02-26T08:47:36;99678.47;;;9.97;100.00
30967;BME280;17649;51.836;8.330;2024-02-26T08:50:36;99686.31;;;10.08;100.00
30967;BME280;17649;51.836;8.330;2024-02-26T08:53:36;99681.25;;;9.94;100.00
30967;BME280;17649;51.836;8.330;2024-02-26T08:56:37;99677.44;;;10.00;100.00
30967;BME280;17649;51.836;8.330;2024-02-26T08:59:37;99684.03;;;10.04;100.00
30967;BME280;17649;51.836;8.330;2024-02-26T09:02:37;99679.09;;;10.13;100.00
30967;BME280;17649;51.836;8.330;2024-02-26T09:05:42;99689.22;;;10.04;100.00
30967;BME280;17649;51.836;8.330;2024-02-26T09:08:42;99690.69;;;10.33;100.00
30967;BME280;17649;51.836;8.330;2024-02-26T09:11:44;99688.81;;;10.35;100.00
30967;BME280;17649;51.836;8.330;2024-02-26T09:14:45;99691.63;;;10.69;100.00
30967;BME280;17649;51.836;8.330;2024-02-26T09:17:45;99686.34;;;10.70;100.00
30967;BME280;17649;51.836;8.330;2024-02-26T09:20:45;99687.13;;;10.84;100.00
30967;BME280;17649;51.836;8.330;2024-02-26T09:23:46;99683.00;;;10.81;100.00
30967;BME280;17649;51.836;8.330;2024-02-26T09:26:46;99688.25;;;10.92;100.00
30967;BME280;17649;51.836;8.330;2024-02-26T09:29:46;99683.13;;;11.27;100.00
30967;BME280;17649;51.836;8.330;2024-02-26T09:32:47;99694.66;;;11.47;100.00
30967;BME280;17649;51.836;8.330;2024-02-26T09:35:49;99691.50;;;12.01;100.00
30967;BME280;17649;51.836;8.330;2024-02-26T09:38:49;99688.81;;;11.68;100.00
30967;BME280;17649;51.836;8.330;2024-02-26T09:41:49;99700.47;;;11.97;100.00
30967;BME280;17649;51.836;8.330;2024-02-26T09:44:50;99695.06;;;12.22;100.00
30967;BME280;17649;51.836;8.330;2024-02-26T09:47:52;99695.88;;;12.12;100.00
30967;BME280;17649;51.836;8.330;2024-02-26T09:50:53;99696.22;;;11.96;100.00
30967;BME280;17649;51.836;8.330;2024-02-26T09:53:53;99701.59;;;11.82;100.00
30967;BME280;17649;51.836;8.330;2024-02-26T09:56:54;99704.50;;;11.42;100.00
30967;BME280;17649;51.836;8.330;2024-02-26T09:59:59;99702.13;;;11.39;100.00
30967;BME280;17649;51.836;8.330;2024-02-26T10:03:05;99701.91;;;11.42;100.00
30967;BME280;17649;51.836;8.330;2024-02-26T10:06:07;99704.97;;;11.36;100.00
30967;BME280;17649;51.836;8.330;2024-02-26T10:09:07;99719.31;;;11.64;100.00
30967;BME280;17649;51.836;8.330;2024-02-26T10:12:10;99707.25;;;11.87;100.00
30967;BME280;17649;51.836;8.330;2024-02-26T10:15:11;99708.56;;;11.81;100.00
30967;BME280;17649;51.836;8.330;2024-02-26T10:18:11;99719.34;;;12.10;100.00
30967;BME280;17649;51.836;8.330;2024-02-26T10:21:21;99723.72;;;12.32;100.00
30967;BME280;17649;51.836;8.330;2024-02-26T10:24:22;99723.81;;;12.08;100.00
30967;BME280;17649;51.836;8.330;2024-02-26T10:27:24;99722.16;;;12.18;100.00
30967;BME280;17649;51.836;8.330;2024-02-26T10:30:25;99729.41;;;11.80;100.00
30967;BME280;17649;51.836;8.330;2024-02-26T10:33:26;99735.72;;;11.76;100.00
30967;BME280;17649;51.836;8.330;2024-02-26T10:36:26;99733.50;;;12.29;100.00
30967;BME280;17649;51.836;8.330;2024-02-26T10:39:27;99732.78;;;12.82;100.00
30967;BME280;17649;51.836;8.330;2024-02-26T10:42:27;99741.41;;;12.83;100.00
30967;BME280;17649;51.836;8.330;2024-02-26T10:45:27;99751.53;;;12.30;100.00
30967;BME280;17649;51.836;8.330;2024-02-26T10:48:27;99750.03;;;12.39;100.00
30967;BME280;17649;51.836;8.330;2024-02-26T10:51:28;99749.06;;;12.62;100.00
30967;BME280;17649;51.836;8.330;2024-02-26T10:54:29;99753.19;;;12.76;100.00
30967;BME280;17649;51.836;8.330;2024-02-26T10:57:33;99754.50;;;12.70;100.00
30967;BME280;17649;51.836;8.330;2024-02-26T11:00:34;99761.78;;;12.09;100.00
30967;BME280;17649;51.836;8.330;2024-02-26T11:03:36;99757.06;;;12.14;100.00
30967;BME280;17649;51.836;8.330;2024-02-26T11:06:37;99756.22;;;12.14;100.00
30967;BME280;17649;51.836;8.330;2024-02-26T11:09:38;99757.88;;;12.15;100.00
30967;BME280;17649;51.836;8.330;2024-02-26T11:12:43;99762.75;;;12.31;100.00
30967;BME280;17649;51.836;8.330;2024-02-26T11:15:46;99761.22;;;12.62;100.00
30967;BME280;17649;51.836;8.330;2024-02-26T11:18:47;99757.22;;;12.58;100.00
30967;BME280;17649;51.836;8.330;2024-02-26T11:21:48;99768.44;;;12.69;100.00
30967;BME280;17649;51.836;8.330;2024-02-26T11:24:48;99759.78;;;13.02;100.00
30967;BME280;17649;51.836;8.330;2024-02-26T11:27:54;99769.09;;;12.94;100.00
30967;BME280;17649;51.836;8.330;2024-02-26T11:30:57;99765.69;;;12.48;100.00
30967;BME280;17649;51.836;8.330;2024-02-26T11:33:58;99766.53;;;12.49;100.00
30967;BME280;17649;51.836;8.330;2024-02-26T11:37:08;99767.13;;;12.41;100.00
30967;BME280;17649;51.836;8.330;2024-02-26T11:40:12;99764.19;;;12.57;100.00
30967;BME280;17649;51.836;8.330;2024-02-26T11:43:12;99758.13;;;12.34;100.00
30967;BME280;17649;51.836;8.330;2024-02-26T11:46:26;99762.41;;;12.46;100.00
30967;BME280;17649;51.836;8.330;2024-02-26T11:49:30;99763.47;;;12.66;100.00
30967;BME280;17649;51.836;8.330;2024-02-26T11:52:31;99759.94;;;12.67;100.00
30967;BME280;17649;51.836;8.330;2024-02-26T11:55:31;99767.81;;;13.10;100.00
30967;BME280;17649;51.836;8.330;2024-02-26T11:58:31;99759.28;;;13.08;100.00
30967;BME280;17649;51.836;8.330;2024-02-26T12:01:35;99767.44;;;13.04;100.00
30967;BME280;17649;51.836;8.330;2024-02-26T12:04:35;99767.28;;;13.39;100.00
30967;BME280;17649;51.836;8.330;2024-02-26T12:07:36;99766.81;;;13.34;100.00
30967;BME280;17649;51.836;8.330;2024-02-26T12:10:36;99763.25;;;12.80;100.00
30967;BME280;17649;51.836;8.330;2024-02-26T12:13:38;99773.97;;;12.53;100.00
30967;BME280;17649;51.836;8.330;2024-02-26T12:16:39;99771.03;;;12.58;100.00
30967;BME280;17649;51.836;8.330;2024-02-26T12:19:40;99783.94;;;12.13;100.00
30967;BME280;17649;51.836;8.330;2024-02-26T12:22:40;99790.56;;;12.29;100.00
30967;BME280;17649;51.836;8.330;2024-02-26T12:25:41;99789.25;;;12.34;100.00
30967;BME280;17649;51.836;8.330;2024-02-26T12:28:41;99793.16;;;12.29;100.00
30967;BME280;17649;51.836;8.330;2024-02-26T12:31:41;99797.88;;;12.23;100.00
30967;BME280;17649;51.836;8.330;2024-02-26T12:34:42;99793.63;;;12.34;100.00
30967;BME280;17649;51.836;8.330;2024-02-26T12:37:45;99802.34;;;12.33;100.00
30967;BME280;17649;51.836;8.330;2024-02-26T12:40:46;99792.59;;;12.59;100.00
30967;BME280;17649;51.836;8.330;2024-02-26T12:43:48;99804.53;;;12.50;100.00
30967;BME280;17649;51.836;8.330;2024-02-26T12:46:49;99800.31;;;12.14;100.00
30967;BME280;17649;51.836;8.330;2024-02-26T12:49:49;99801.09;;;12.03;100.00
30967;BME280;17649;51.836;8.330;2024-02-26T12:52:49;99803.88;;;12.24;100.00
30967;BME280;17649;51.836;8.330;2024-02-26T13:02:51;99828.53;;;11.71;100.00
30967;BME280;17649;51.836;8.330;2024-02-26T13:05:54;99833.09;;;11.80;100.00
30967;BME280;17649;51.836;8.330;2024-02-26T13:08:58;99835.25;;;11.73;100.00
30967;BME280;17649;51.836;8.330;2024-02-26T13:11:58;99846.44;;;11.74;100.00
30967;BME280;17649;51.836;8.330;2024-02-26T13:15:01;99846.53;;;11.85;100.00
30967;BME280;17649;51.836;8.330;2024-02-26T13:18:08;99851.66;;;11.98;100.00
30967;BME280;17649;51.836;8.330;2024-02-26T13:21:10;99840.22;;;11.52;100.00
30967;BME280;17649;51.836;8.330;2024-02-26T13:24:12;99850.53;;;11.65;100.00
30967;BME280;17649;51.836;8.330;2024-02-26T13:27:13;99846.88;;;11.68;100.00
30967;BME280;17649;51.836;8.330;2024-02-26T13:30:25;99856.75;;;11.62;100.00
30967;BME280;17649;51.836;8.330;2024-02-26T13:33:28;99856.72;;;11.39;100.00
30967;BME280;17649;51.836;8.330;2024-02-26T13:36:28;99856.03;;;11.24;100.00
30967;BME280;17649;51.836;8.330;2024-02-26T13:42:39;99864.59;;;11.37;100.00
30967;BME280;17649;51.836;8.330;2024-02-26T13:45:39;99873.16;;;11.50;100.00
30967;BME280;17649;51.836;8.330;2024-02-26T13:48:40;99873.56;;;11.20;100.00
30967;BME280;17649;51.836;8.330;2024-02-26T13:51:40;99865.91;;;10.93;100.00
30967;BME280;17649;51.836;8.330;2024-02-26T13:54:41;99868.28;;;10.71;100.00
30967;BME280;17649;51.836;8.330;2024-02-26T13:57:41;99878.97;;;10.66;100.00
30967;BME280;17649;51.836;8.330;2024-02-26T14:00:41;99889.94;;;10.57;100.00
30967;BME280;17649;51.836;8.330;2024-02-26T14:03:41;99888.34;;;10.55;100.00
30967;BME280;17649;51.836;8.330;2024-02-26T14:06:42;99897.59;;;10.71;100.00
30967;BME280;17649;51.836;8.330;2024-02-26T14:09:42;99887.84;;;10.50;100.00
30967;BME280;17649;51.836;8.330;2024-02-26T14:12:42;99911.91;;;10.37;100.00
30967;BME280;17649;51.836;8.330;2024-02-26T14:15:43;99911.72;;;10.40;100.00
30967;BME280;17649;51.836;8.330;2024-02-26T14:18:43;99926.69;;;10.75;100.00
30967;BME280;17649;51.836;8.330;2024-02-26T14:21:45;99929.22;;;10.50;100.00
30967;BME280;17649;51.836;8.330;2024-02-26T14:24:45;99937.09;;;10.48;100.00
30967;BME280;17649;51.836;8.330;2024-02-26T14:27:46;99939.34;;;10.40;100.00
30967;BME280;17649;51.836;8.330;2024-02-26T14:30:46;99939.25;;;10.41;100.00
30967;BME280;17649;51.836;8.330;2024-02-26T14:33:46;99929.69;;;10.02;100.00
30967;BME280;17649;51.836;8.330;2024-02-26T14:36:48;99930.00;;;10.10;100.00
30967;BME280;17649;51.836;8.330;2024-02-26T14:39:49;99943.75;;;10.11;100.00
30967;BME280;17649;51.836;8.330;2024-02-26T14:42:51;99949.50;;;10.43;100.00
30967;BME280;17649;51.836;8.330;2024-02-26T14:45:52;99950.63;;;10.12;100.00
30967;BME280;17649;51.836;8.330;2024-02-26T14:48:52;99954.63;;;9.89;100.00
30967;BME280;17649;51.836;8.330;2024-02-26T14:51:52;99963.59;;;10.10;100.00
30967;BME280;17649;51.836;8.330;2024-02-26T14:54:52;99965.44;;;10.23;100.00
30967;BME280;17649;51.836;8.330;2024-02-26T14:57:52;99954.50;;;10.05;100.00
30967;BME280;17649;51.836;8.330;2024-02-26T15:00:53;99957.50;;;10.11;100.00
30967;BME280;17649;51.836;8.330;2024-02-26T15:03:53;99961.78;;;10.12;100.00
30967;BME280;17649;51.836;8.330;2024-02-26T15:06:54;99954.84;;;10.13;100.00
30967;BME280;17649;51.836;8.330;2024-02-26T15:09:54;99954.69;;;10.02;100.00
30967;BME280;17649;51.836;8.330;2024-02-26T15:12:57;99953.63;;;9.77;100.00
30967;BME280;17649;51.836;8.330;2024-02-26T15:16:00;99976.22;;;10.02;100.00
30967;BME280;17649;51.836;8.330;2024-02-26T15:19:00;99973.00;;;9.99;100.00
30967;BME280;17649;51.836;8.330;2024-02-26T15:22:01;99983.03;;;10.03;100.00
30967;BME280;17649;51.836;8.330;2024-02-26T15:25:01;99977.50;;;9.95;100.00
30967;BME280;17649;51.836;8.330;2024-02-26T15:28:01;99982.56;;;9.97;100.00
30967;BME280;17649;51.836;8.330;2024-02-26T15:31:01;99993.38;;;10.03;100.00
30967;BME280;17649;51.836;8.330;2024-02-26T15:34:02;99992.91;;;9.97;100.00
30967;BME280;17649;51.836;8.330;2024-02-26T15:37:03;99987.56;;;10.00;100.00
30967;BME280;17649;51.836;8.330;2024-02-26T15:40:03;100010.84;;;9.85;100.00
30967;BME280;17649;51.836;8.330;2024-02-26T15:43:06;100004.97;;;9.69;100.00
30967;BME280;17649;51.836;8.330;2024-02-26T15:46:06;100004.28;;;9.80;100.00
30967;BME280;17649;51.836;8.330;2024-02-26T15:49:07;99997.75;;;9.60;100.00
30967;BME280;17649;51.836;8.330;2024-02-26T15:52:07;100003.38;;;9.67;100.00
30967;BME280;17649;51.836;8.330;2024-02-26T15:55:07;100017.22;;;9.51;100.00
30967;BME280;17649;51.836;8.330;2024-02-26T15:58:08;100025.25;;;9.61;100.00
30967;BME280;17649;51.836;8.330;2024-02-26T16:01:09;100023.41;;;9.77;100.00
30967;BME280;17649;51.836;8.330;2024-02-26T16:04:09;100027.09;;;9.45;100.00